createdAt,value
2023-05-19T00:00:12.533Z,97026.19
2023-05-19T00:02:38.918Z,97020.06
2023-05-19T00:05:05.338Z,97036.47
2023-05-19T00:07:31.658Z,97025.78
2023-05-19T00:09:57.981Z,97038.38
2023-05-19T00:12:24.315Z,97027.13
2023-05-19T00:14:50.638Z,97020.38
2023-05-19T00:17:17.031Z,97031.59
2023-05-19T00:19:43.380Z,97022.44
2023-05-19T00:22:09.696Z,97029.88
2023-05-19T00:24:36.033Z,97026.94
2023-05-19T00:27:02.333Z,97019.97
2023-05-19T00:29:28.638Z,97020.03
2023-05-19T00:31:54.959Z,97005.06
2023-05-19T00:34:21.383Z,97005.63
2023-05-19T00:36:47.702Z,97006.41
2023-05-19T00:39:14.026Z,96999.75
2023-05-19T00:41:40.353Z,97010.72
2023-05-19T00:44:06.645Z,97001.63
2023-05-19T00:46:32.982Z,97008.53
2023-05-19T00:48:59.317Z,97000.56
2023-05-19T00:51:25.624Z,96995.19
2023-05-19T00:53:51.944Z,97000.31
2023-05-19T00:56:18.286Z,97001.66
2023-05-19T00:58:44.654Z,97001.91
2023-05-19T01:01:11.012Z,96994.63
2023-05-19T01:03:37.539Z,97000.25
2023-05-19T01:06:03.909Z,96998.38
2023-05-19T01:08:30.209Z,96987.59
2023-05-19T01:10:56.541Z,96995.41
2023-05-19T01:13:22.874Z,96989.78
2023-05-19T01:15:49.199Z,96989.78
2023-05-19T01:18:15.512Z,96990.53
2023-05-19T01:20:41.829Z,96990.22
2023-05-19T01:23:08.161Z,96988.91
2023-05-19T01:25:34.483Z,96995.03
2023-05-19T01:28:00.804Z,96992.59
2023-05-19T01:30:27.101Z,96992.34
2023-05-19T01:32:53.630Z,97002.25
2023-05-19T01:35:20.011Z,96994.22
2023-05-19T01:37:46.324Z,96995.59
2023-05-19T01:40:12.661Z,96997.47
2023-05-19T01:42:38.986Z,97001.81
2023-05-19T01:45:05.311Z,97006.94
2023-05-19T01:47:31.634Z,97001.75
2023-05-19T01:49:57.974Z,97002.75
2023-05-19T01:52:24.260Z,96999.53
2023-05-19T01:54:50.583Z,97004.25
2023-05-19T01:57:16.875Z,96994.78
2023-05-19T01:59:43.285Z,96994.72
2023-05-19T02:02:09.600Z,96989.81
2023-05-19T02:04:36.031Z,96992.97
2023-05-19T02:07:02.337Z,96987.13
2023-05-19T02:09:28.618Z,96990.31
2023-05-19T02:11:54.916Z,96990.81
2023-05-19T02:14:21.219Z,96990.75
2023-05-19T02:16:47.540Z,96985.13
2023-05-19T02:19:13.917Z,96991.78
2023-05-19T02:21:40.259Z,96994.16
2023-05-19T02:24:06.579Z,96991.38
2023-05-19T02:26:32.917Z,96993.59
2023-05-19T02:28:59.250Z,96992.84
2023-05-19T02:31:25.562Z,96986.63
2023-05-19T02:33:51.889Z,96991.00
2023-05-19T02:36:18.188Z,96990.75
2023-05-19T02:38:44.508Z,96988.56
2023-05-19T02:41:10.824Z,96986.44
2023-05-19T02:43:37.121Z,96988.16
2023-05-19T02:46:03.500Z,96988.50
2023-05-19T02:48:29.849Z,96988.25
2023-05-19T02:50:56.136Z,96983.28
2023-05-19T02:53:22.443Z,96980.53
2023-05-19T02:55:48.779Z,96977.06
2023-05-19T02:58:15.071Z,96968.03
2023-05-19T03:00:41.390Z,96976.88
2023-05-19T03:03:07.774Z,96971.13
2023-05-19T03:05:34.153Z,96973.63
2023-05-19T03:08:00.483Z,96974.19
2023-05-19T03:10:26.792Z,96971.81
2023-05-19T03:12:53.098Z,96976.41
2023-05-19T03:15:19.388Z,96977.78
2023-05-19T03:17:45.847Z,96979.16
2023-05-19T03:20:12.260Z,96970.88
2023-05-19T03:22:38.612Z,96968.19
2023-05-19T03:25:04.918Z,96965.81
2023-05-19T03:27:31.225Z,96958.59
2023-05-19T03:29:57.542Z,96954.06
2023-05-19T03:32:23.982Z,96959.41
2023-05-19T03:34:50.450Z,96954.56
2023-05-19T03:37:16.768Z,96961.28
2023-05-19T03:39:43.094Z,96959.16
2023-05-19T03:42:09.431Z,96951.69
2023-05-19T03:44:35.732Z,96957.53
2023-05-19T03:47:02.053Z,96962.09
2023-05-19T03:49:28.379Z,96970.88
2023-05-19T03:51:54.740Z,96976.53
2023-05-19T03:54:21.067Z,96976.78
2023-05-19T03:56:47.378Z,96979.47
2023-05-19T03:59:13.665Z,96984.25
2023-05-19T04:01:39.988Z,96979.16
2023-05-19T04:04:06.319Z,96984.75
2023-05-19T04:06:32.639Z,96982.66
2023-05-19T04:08:58.972Z,96985.31
2023-05-19T04:11:25.279Z,96987.75
2023-05-19T04:13:51.582Z,96991.25
2023-05-19T04:16:18.038Z,96987.50
2023-05-19T04:18:44.444Z,96995.53
2023-05-19T04:21:10.756Z,96993.34
2023-05-19T04:23:37.066Z,96983.94
2023-05-19T04:26:03.357Z,96995.47
2023-05-19T04:28:29.658Z,96997.09
2023-05-19T04:30:55.960Z,96993.09
2023-05-19T04:33:22.261Z,96983.44
2023-05-19T04:35:48.554Z,96996.84
2023-05-19T04:38:14.862Z,96993.59
2023-05-19T04:40:41.153Z,97001.41
2023-05-19T04:43:07.435Z,96994.09
2023-05-19T04:45:33.753Z,96997.84
2023-05-19T04:48:00.147Z,96996.28
2023-05-19T04:50:26.536Z,97005.13
2023-05-19T04:52:52.839Z,96999.78
2023-05-19T04:55:19.140Z,97001.91
2023-05-19T04:57:45.457Z,97001.91
2023-05-19T05:00:11.758Z,97008.06
2023-05-19T05:02:38.146Z,97006.50
2023-05-19T05:05:04.540Z,97007.31
2023-05-19T05:07:32.313Z,97005.94
2023-05-19T05:09:59.055Z,97001.97
2023-05-19T05:12:25.432Z,97008.44
2023-05-19T05:14:51.713Z,97009.81
2023-05-19T05:17:18.008Z,97002.34
2023-05-19T05:19:44.312Z,97000.78
2023-05-19T05:22:10.657Z,96996.22
2023-05-19T05:24:36.970Z,96992.53
2023-05-19T05:27:03.269Z,96998.97
2023-05-19T05:29:29.581Z,96989.63
2023-05-19T05:31:55.943Z,96996.34
2023-05-19T05:34:22.262Z,96994.28
2023-05-19T05:36:48.680Z,96995.09
2023-05-19T05:39:14.969Z,96998.38
2023-05-19T05:41:41.276Z,96989.84
2023-05-19T05:44:07.619Z,96997.63
2023-05-19T05:46:34.021Z,96991.22
2023-05-19T05:49:00.484Z,96999.81
2023-05-19T05:51:26.801Z,96990.41
2023-05-19T05:53:53.128Z,96989.34
2023-05-19T05:56:19.423Z,96991.28
2023-05-19T05:58:45.727Z,96991.59
2023-05-19T06:01:12.049Z,96989.19
2023-05-19T06:03:38.449Z,96993.25
2023-05-19T06:06:05.047Z,96996.75
2023-05-19T06:08:31.476Z,96988.75
2023-05-19T06:10:57.827Z,96990.91
2023-05-19T06:13:24.232Z,96984.50
2023-05-19T06:15:50.601Z,96989.34
2023-05-19T06:18:16.906Z,96985.47
2023-05-19T06:20:43.218Z,96987.19
2023-05-19T06:23:09.540Z,96986.16
2023-05-19T06:25:35.880Z,96988.59
2023-05-19T06:28:02.226Z,96987.78
2023-05-19T06:30:28.604Z,96981.41
2023-05-19T06:32:55.051Z,96972.59
2023-05-19T06:35:21.382Z,96969.94
2023-05-19T06:37:47.727Z,96971.25
2023-05-19T06:40:14.036Z,96972.72
2023-05-19T06:42:40.359Z,96973.28
2023-05-19T06:45:06.664Z,96981.06
2023-05-19T06:47:32.987Z,96970.94
2023-05-19T06:49:59.294Z,96969.88
2023-05-19T06:52:25.635Z,96970.34
2023-05-19T06:54:51.950Z,96969.03
2023-05-19T06:57:18.286Z,96964.00
2023-05-19T06:59:44.614Z,96955.13
2023-05-19T07:02:10.959Z,96956.81
2023-05-19T07:04:37.348Z,96948.75
2023-05-19T07:07:03.651Z,96952.28
2023-05-19T07:09:29.982Z,96956.84
2023-05-19T07:11:56.279Z,96956.31
2023-05-19T07:14:22.620Z,96960.13
2023-05-19T07:16:48.952Z,96957.75
2023-05-19T07:19:15.353Z,96957.16
2023-05-19T07:21:41.664Z,96956.97
2023-05-19T07:24:07.962Z,96966.13
2023-05-19T07:26:34.331Z,96964.78
2023-05-19T07:29:00.741Z,96965.38
2023-05-19T07:31:27.068Z,96969.44
2023-05-19T07:33:54.629Z,96964.34
2023-05-19T07:36:21.211Z,96963.31
2023-05-19T07:38:47.572Z,96957.97
2023-05-19T07:41:13.940Z,96963.06
2023-05-19T07:43:40.288Z,96959.31
2023-05-19T07:46:06.663Z,96950.72
2023-05-19T07:48:33.045Z,96956.63
2023-05-19T07:50:59.352Z,96955.56
2023-05-19T07:53:25.672Z,96953.13
2023-05-19T07:55:51.966Z,96943.47
2023-05-19T07:58:18.252Z,96935.41
2023-05-19T08:00:44.551Z,96940.53
2023-05-19T08:03:10.985Z,96945.16
2023-05-19T08:05:37.398Z,96943.81
2023-05-19T08:08:03.739Z,96945.16
2023-05-19T08:10:30.130Z,96942.22
2023-05-19T08:12:56.535Z,96942.22
2023-05-19T08:15:22.859Z,96937.94
2023-05-19T08:17:49.210Z,96938.75
2023-05-19T08:20:15.559Z,96936.59
2023-05-19T08:22:41.947Z,96942.22
2023-05-19T08:25:08.280Z,96934.72
2023-05-19T08:27:34.611Z,96932.56
2023-05-19T08:30:01.117Z,96930.41
2023-05-19T08:32:27.474Z,96937.16
2023-05-19T08:34:53.887Z,96925.59
2023-05-19T08:37:20.203Z,96925.06
2023-05-19T08:39:46.521Z,96930.72
2023-05-19T08:42:12.811Z,96924.53
2023-05-19T08:44:39.123Z,96924.25
2023-05-19T08:47:05.521Z,96920.75
2023-05-19T08:49:31.851Z,96929.63
2023-05-19T08:51:58.156Z,96921.03
2023-05-19T08:54:24.442Z,96927.47
2023-05-19T08:56:50.731Z,96925.88
2023-05-19T08:59:17.051Z,96919.13
2023-05-19T09:01:43.386Z,96920.47
2023-05-19T09:04:09.793Z,96914.56
2023-05-19T09:06:36.240Z,96913.47
2023-05-19T09:09:02.538Z,96913.19
2023-05-19T09:11:28.859Z,96914.00
2023-05-19T09:13:55.154Z,96904.59
2023-05-19T09:16:21.508Z,96900.28
2023-05-19T09:18:47.874Z,96894.63
2023-05-19T09:21:14.272Z,96893.81
2023-05-19T09:23:40.586Z,96883.28
2023-05-19T09:26:06.914Z,96886.50
2023-05-19T09:28:33.346Z,96887.53
2023-05-19T09:30:59.686Z,96881.84
2023-05-19T09:33:25.977Z,96883.44
2023-05-19T09:35:52.314Z,96873.97
2023-05-19T09:38:18.635Z,96872.16
2023-05-19T09:40:45.066Z,96881.28
2023-05-19T09:43:11.376Z,96879.09
2023-05-19T09:45:37.683Z,96876.63
2023-05-19T09:48:04.013Z,96874.97
2023-05-19T09:50:30.415Z,96883.31
2023-05-19T09:52:56.722Z,96880.03
2023-05-19T09:55:23.093Z,96884.06
2023-05-19T09:57:49.509Z,96881.63
2023-05-19T10:00:15.809Z,96885.06
2023-05-19T10:02:42.200Z,96873.28
2023-05-19T10:05:08.618Z,96870.56
2023-05-19T10:07:34.956Z,96864.63
2023-05-19T10:10:01.261Z,96862.69
2023-05-19T10:12:27.599Z,96858.91
2023-05-19T10:14:53.987Z,96864.56
2023-05-19T10:17:20.346Z,96862.66
2023-05-19T10:19:46.671Z,96873.72
2023-05-19T10:22:12.983Z,96869.13
2023-05-19T10:24:39.289Z,96861.50
2023-05-19T10:27:05.640Z,96867.16
2023-05-19T10:29:31.949Z,96873.09
2023-05-19T10:31:58.260Z,96871.97
2023-05-19T10:34:24.608Z,96866.06
2023-05-19T10:36:50.931Z,96867.59
2023-05-19T10:39:17.247Z,96868.69
2023-05-19T10:41:44.988Z,96864.53
2023-05-19T10:44:11.438Z,96859.09
2023-05-19T10:46:37.824Z,96854.41
2023-05-19T10:49:04.280Z,96850.69
2023-05-19T10:51:30.572Z,96850.25
2023-05-19T10:53:56.916Z,96860.00
2023-05-19T10:56:23.283Z,96856.19
2023-05-19T10:58:49.643Z,96838.88
2023-05-19T11:01:16.026Z,96849.72
2023-05-19T11:03:43.045Z,96850.69
2023-05-19T11:06:09.620Z,96848.69
2023-05-19T11:08:35.934Z,96835.63
2023-05-19T11:11:02.251Z,96838.56
2023-05-19T11:13:28.664Z,96827.84
2023-05-19T11:15:55.003Z,96837.75
2023-05-19T11:18:21.335Z,96831.19
2023-05-19T11:20:47.692Z,96831.94
2023-05-19T11:23:14.111Z,96828.94
2023-05-19T11:25:40.434Z,96827.28
2023-05-19T11:28:06.739Z,96829.28
2023-05-19T11:30:33.048Z,96827.72
2023-05-19T11:32:59.390Z,96830.88
2023-05-19T11:35:25.723Z,96835.34
2023-05-19T11:37:52.064Z,96829.88
2023-05-19T11:40:18.354Z,96828.03
2023-05-19T11:42:44.677Z,96827.88
2023-05-19T11:45:10.998Z,96820.28
2023-05-19T11:47:50.847Z,96814.81
2023-05-19T11:50:23.556Z,96814.25
2023-05-19T11:52:49.911Z,96815.41
2023-05-19T11:55:16.246Z,96808.47
2023-05-19T11:57:49.614Z,96809.38
2023-05-19T12:00:22.416Z,96796.97
2023-05-19T12:02:48.933Z,96797.09
2023-05-19T12:05:15.484Z,96800.50
2023-05-19T12:07:41.978Z,96796.38
2023-05-19T12:10:08.455Z,96789.50
2023-05-19T12:12:34.776Z,96790.53
2023-05-19T12:15:01.094Z,96794.06
2023-05-19T12:17:27.439Z,96798.06
2023-05-19T12:19:53.819Z,96795.06
2023-05-19T12:22:20.129Z,96792.59
2023-05-19T12:24:46.467Z,96796.22
2023-05-19T12:27:12.755Z,96797.22
2023-05-19T12:29:39.064Z,96791.72
2023-05-19T12:32:05.424Z,96779.88
2023-05-19T12:34:31.863Z,96780.06
2023-05-19T12:36:58.164Z,96792.88
2023-05-19T12:39:24.458Z,96789.44
2023-05-19T12:41:50.773Z,96790.53
2023-05-19T12:44:17.085Z,96786.72
2023-05-19T12:46:43.380Z,96791.88
2023-05-19T12:49:09.684Z,96795.06
2023-05-19T12:51:35.992Z,96798.41
2023-05-19T12:54:02.314Z,96784.81
2023-05-19T12:56:28.622Z,96772.75
2023-05-19T12:58:54.951Z,96784.91
2023-05-19T13:01:21.344Z,96780.53
2023-05-19T13:03:47.866Z,96777.59
2023-05-19T13:06:17.279Z,96780.00
2023-05-19T13:08:44.638Z,96784.88
2023-05-19T13:11:11.012Z,96776.84
2023-05-19T13:13:37.378Z,96772.84
2023-05-19T13:16:03.723Z,96776.31
2023-05-19T13:18:30.018Z,96778.16
2023-05-19T13:20:56.363Z,96769.56
2023-05-19T13:23:22.682Z,96762.22
2023-05-19T13:25:48.994Z,96771.38
2023-05-19T13:28:15.299Z,96774.81
2023-05-19T13:30:41.766Z,96764.50
2023-05-19T13:33:08.342Z,96766.13
2023-05-19T13:35:34.711Z,96774.00
2023-05-19T13:38:01.028Z,96770.06
2023-05-19T13:40:27.328Z,96773.78
2023-05-19T13:42:53.658Z,96779.88
2023-05-19T13:45:19.975Z,96770.38
2023-05-19T13:47:46.371Z,96779.56
2023-05-19T13:50:12.814Z,96786.09
2023-05-19T13:52:39.196Z,96783.09
2023-05-19T13:55:05.500Z,96771.63
2023-05-19T13:57:31.799Z,96771.06
2023-05-19T14:00:03.401Z,96776.53
2023-05-19T14:02:30.612Z,96770.00
2023-05-19T14:04:57.233Z,96776.59
2023-05-19T14:07:23.521Z,96770.06
2023-05-19T14:09:49.826Z,96771.84
2023-05-19T14:12:16.208Z,96759.75
2023-05-19T14:14:42.517Z,96765.75
2023-05-19T14:17:08.841Z,96765.63
2023-05-19T14:19:35.189Z,96770.00
2023-05-19T14:22:01.510Z,96767.91
2023-05-19T14:24:27.786Z,96773.00
2023-05-19T14:26:54.077Z,96771.59
2023-05-19T14:29:20.364Z,96777.59
2023-05-19T14:31:46.926Z,96772.41
2023-05-19T14:34:13.306Z,96761.50
2023-05-19T14:36:39.614Z,96769.13
2023-05-19T14:39:05.941Z,96771.25
2023-05-19T14:41:32.262Z,96775.28
2023-05-19T14:43:58.568Z,96761.63
2023-05-19T14:46:24.938Z,96765.56
2023-05-19T14:48:51.256Z,96773.88
2023-05-19T14:51:17.598Z,96760.53
2023-05-19T14:53:43.904Z,96759.84
2023-05-19T14:56:10.224Z,96767.97
2023-05-19T14:58:36.601Z,96766.97
2023-05-19T15:01:02.978Z,96766.47
2023-05-19T15:03:29.363Z,96761.25
2023-05-19T15:05:55.682Z,96771.63
2023-05-19T15:08:22.051Z,96766.53
2023-05-19T15:10:48.373Z,96770.53
2023-05-19T15:13:14.672Z,96760.59
2023-05-19T15:15:40.978Z,96765.91
2023-05-19T15:18:07.317Z,96761.59
2023-05-19T15:20:33.913Z,96761.09
2023-05-19T15:23:00.379Z,96764.72
2023-05-19T15:25:26.771Z,96767.03
2023-05-19T15:27:53.071Z,96763.41
2023-05-19T15:30:19.384Z,96758.34
2023-05-19T15:32:45.709Z,96755.34
2023-05-19T15:35:12.033Z,96767.63
2023-05-19T15:37:38.357Z,96755.47
2023-05-19T15:40:04.678Z,96755.72
2023-05-19T15:42:31.003Z,96772.19
2023-05-19T15:44:57.338Z,96764.75
2023-05-19T15:47:23.662Z,96764.53
2023-05-19T15:49:49.969Z,96772.84
2023-05-19T15:52:16.280Z,96775.69
2023-05-19T15:54:42.737Z,96774.53
2023-05-19T15:57:09.046Z,96769.22
2023-05-19T15:59:35.359Z,96771.13
2023-05-19T16:02:01.765Z,96766.09
2023-05-19T16:04:28.193Z,96761.31
2023-05-19T16:06:54.579Z,96764.69
2023-05-19T16:09:20.934Z,96765.38
2023-05-19T16:11:47.226Z,96762.41
2023-05-19T16:14:13.593Z,96769.00
2023-05-19T16:16:39.958Z,96763.44
2023-05-19T16:19:06.456Z,96762.47
2023-05-19T16:21:32.817Z,96761.88
2023-05-19T16:23:59.143Z,96764.31
2023-05-19T16:26:25.459Z,96759.63
2023-05-19T16:28:51.863Z,96757.00
2023-05-19T16:31:18.191Z,96759.06
2023-05-19T16:33:44.493Z,96752.69
2023-05-19T16:36:10.811Z,96749.69
2023-05-19T16:38:37.170Z,96758.03
2023-05-19T16:41:03.473Z,96748.75
2023-05-19T16:43:29.779Z,96749.25
2023-05-19T16:45:56.117Z,96754.88
2023-05-19T16:48:22.444Z,96754.66
2023-05-19T16:50:48.736Z,96747.72
2023-05-19T16:53:15.072Z,96755.53
2023-05-19T16:55:41.392Z,96750.28
2023-05-19T16:58:07.763Z,96751.47
2023-05-19T17:00:34.262Z,96746.78
2023-05-19T17:03:00.918Z,96748.09
2023-05-19T17:05:27.352Z,96745.72
2023-05-19T17:07:53.660Z,96749.81
2023-05-19T17:10:19.960Z,96751.28
2023-05-19T17:12:46.348Z,96746.34
2023-05-19T17:15:12.684Z,96754.78
2023-05-19T17:17:39.011Z,96736.69
2023-05-19T17:20:05.487Z,96766.22
2023-05-19T17:22:31.856Z,96751.00
2023-05-19T17:24:58.172Z,96757.81
2023-05-19T17:27:24.486Z,96758.63
2023-05-19T17:29:50.805Z,96763.00
2023-05-19T17:32:17.139Z,96762.88
2023-05-19T17:34:43.517Z,96758.28
2023-05-19T17:37:09.823Z,96761.16
2023-05-19T17:39:36.149Z,96756.34
2023-05-19T17:42:02.488Z,96758.69
2023-05-19T17:44:28.839Z,96761.16
2023-05-19T17:46:55.219Z,96755.47
2023-05-19T17:49:21.559Z,96755.50
2023-05-19T17:51:47.869Z,96759.28
2023-05-19T17:54:14.251Z,96746.56
2023-05-19T17:56:40.603Z,96756.69
2023-05-19T17:59:06.917Z,96747.84
2023-05-19T18:01:33.252Z,96749.81
2023-05-19T18:03:59.692Z,96754.41
2023-05-19T18:06:26.149Z,96749.25
2023-05-19T18:08:52.532Z,96760.28
2023-05-19T18:11:19.009Z,96768.81
2023-05-19T18:13:45.321Z,96765.25
2023-05-19T18:16:11.687Z,96763.66
2023-05-19T18:18:38.095Z,96763.38
2023-05-19T18:21:04.430Z,96763.38
2023-05-19T18:23:30.754Z,96761.28
2023-05-19T18:25:57.078Z,96768.56
2023-05-19T18:28:23.408Z,96763.69
2023-05-19T18:30:49.745Z,96764.59
2023-05-19T18:33:16.083Z,96758.97
2023-05-19T18:35:42.384Z,96762.19
2023-05-19T18:38:08.688Z,96747.88
2023-05-19T18:40:35.227Z,96748.69
2023-05-19T18:43:01.793Z,96767.06
2023-05-19T18:45:28.121Z,96761.09
2023-05-19T18:47:54.574Z,96752.00
2023-05-19T18:50:21.008Z,96761.25
2023-05-19T18:52:47.328Z,96766.66
2023-05-19T18:55:13.633Z,96760.28
2023-05-19T18:57:40.006Z,96751.94
2023-05-19T19:00:06.303Z,96754.38
2023-05-19T19:02:32.677Z,96755.50
2023-05-19T19:04:59.127Z,96760.09
2023-05-19T19:07:25.530Z,96760.59
2023-05-19T19:09:51.846Z,96762.16
2023-05-19T19:12:19.062Z,96754.59
2023-05-19T19:14:46.636Z,96758.34
2023-05-19T19:17:13.013Z,96754.56
2023-05-19T19:19:39.603Z,96758.38
2023-05-19T19:22:06.084Z,96768.34
2023-05-19T19:24:32.443Z,96767.56
2023-05-19T19:26:58.770Z,96774.09
2023-05-19T19:29:25.077Z,96783.81
2023-05-19T19:31:51.473Z,96778.66
2023-05-19T19:34:17.790Z,96782.44
2023-05-19T19:36:44.088Z,96773.06
2023-05-19T19:39:10.400Z,96783.03
2023-05-19T19:41:36.729Z,96778.41
2023-05-19T19:44:03.198Z,96781.38
2023-05-19T19:46:29.739Z,96782.78
2023-05-19T19:48:56.085Z,96780.47
2023-05-19T19:51:22.389Z,96792.53
2023-05-19T19:53:48.706Z,96793.56
2023-05-19T19:56:15.059Z,96793.63
2023-05-19T19:58:41.383Z,96796.91
2023-05-19T20:01:07.703Z,96788.78
2023-05-19T20:03:34.067Z,96796.31
2023-05-19T20:06:00.485Z,96784.19
2023-05-19T20:08:26.785Z,96796.59
2023-05-19T20:10:53.103Z,96793.63
2023-05-19T20:13:19.504Z,96787.72
2023-05-19T20:15:45.826Z,96786.09
2023-05-19T20:18:12.189Z,96779.63
2023-05-19T20:20:38.500Z,96771.50
2023-05-19T20:23:04.807Z,96778.53
2023-05-19T20:25:31.158Z,96780.00
2023-05-19T20:27:57.572Z,96778.09
2023-05-19T20:30:23.904Z,96781.31
2023-05-19T20:32:50.263Z,96783.16
2023-05-19T20:35:16.690Z,96786.16
2023-05-19T20:37:43.038Z,96780.25
2023-05-19T20:40:09.410Z,96781.59
2023-05-19T20:42:35.730Z,96778.47
2023-05-19T20:45:02.157Z,96782.25
2023-05-19T20:47:30.396Z,96771.41
2023-05-19T20:49:57.019Z,96771.22
2023-05-19T20:52:23.325Z,96779.31
2023-05-19T20:54:49.637Z,96782.81
2023-05-19T20:57:15.947Z,96785.75
2023-05-19T20:59:42.263Z,96781.19
2023-05-19T21:02:08.721Z,96777.38
2023-05-19T21:04:35.127Z,96783.84
2023-05-19T21:07:01.557Z,96776.31
2023-05-19T21:09:27.907Z,96776.81
2023-05-19T21:11:54.208Z,96785.41
2023-05-19T21:14:20.547Z,96774.41
2023-05-19T21:16:46.891Z,96778.41
2023-05-19T21:19:13.221Z,96782.44
2023-05-19T21:21:39.537Z,96776.50
2023-05-19T21:24:05.849Z,96776.50
2023-05-19T21:26:32.157Z,96774.06
2023-05-19T21:28:58.465Z,96774.88
2023-05-19T21:31:25.009Z,96779.22
2023-05-19T21:33:51.502Z,96772.47
2023-05-19T21:36:17.882Z,96766.03
2023-05-19T21:38:44.330Z,96769.31
2023-05-19T21:41:10.642Z,96773.94
2023-05-19T21:43:36.956Z,96768.00
2023-05-19T21:46:03.383Z,96770.16
2023-05-19T21:48:29.704Z,96768.53
2023-05-19T21:50:56.035Z,96774.47
2023-05-19T21:53:22.350Z,96768.81
2023-05-19T21:55:48.683Z,96762.09
2023-05-19T21:58:15.011Z,96761.56
2023-05-19T22:00:41.321Z,96758.84
2023-05-19T22:03:07.783Z,96754.25
2023-05-19T22:05:34.183Z,96748.88
2023-05-19T22:08:00.538Z,96744.91
2023-05-19T22:10:26.838Z,96748.72
2023-05-19T22:12:53.156Z,96745.44
2023-05-19T22:15:19.474Z,96752.72
2023-05-19T22:17:45.815Z,96751.66
2023-05-19T22:20:12.148Z,96754.06
2023-05-19T22:22:38.460Z,96755.16
2023-05-19T22:25:04.760Z,96756.75
2023-05-19T22:27:31.111Z,96752.97
2023-05-19T22:29:57.436Z,96762.38
2023-05-19T22:32:23.772Z,96752.94
2023-05-19T22:34:50.196Z,96751.06
2023-05-19T22:37:16.537Z,96752.97
2023-05-19T22:39:42.874Z,96750.84
2023-05-19T22:42:09.228Z,96754.06
2023-05-19T22:44:35.549Z,96762.41
2023-05-19T22:47:01.898Z,96750.84
2023-05-19T22:49:28.198Z,96751.13
2023-05-19T22:51:54.542Z,96756.50
2023-05-19T22:54:20.868Z,96748.69
2023-05-19T22:56:47.239Z,96747.06
2023-05-19T22:59:13.587Z,96752.44
2023-05-19T23:01:39.990Z,96749.00
2023-05-19T23:04:06.470Z,96742.53
2023-05-19T23:06:32.822Z,96737.72
2023-05-19T23:08:59.134Z,96741.22
2023-05-19T23:11:25.449Z,96739.06
2023-05-19T23:13:51.765Z,96747.16
2023-05-19T23:16:18.267Z,96749.84
2023-05-19T23:18:44.686Z,96750.66
2023-05-19T23:21:10.980Z,96740.69
2023-05-19T23:23:37.310Z,96738.53
2023-05-19T23:26:03.616Z,96742.34
2023-05-19T23:28:29.925Z,96738.03
2023-05-19T23:30:56.311Z,96734.53
2023-05-19T23:33:22.674Z,96735.88
2023-05-19T23:35:49.004Z,96738.56
2023-05-19T23:38:15.321Z,96735.34
2023-05-19T23:40:41.643Z,96734.78
2023-05-19T23:43:08.057Z,96738.84
2023-05-19T23:45:34.612Z,96730.28
2023-05-19T23:48:01.163Z,96732.44
2023-05-19T23:50:27.514Z,96727.31
2023-05-19T23:52:53.847Z,96725.19
2023-05-19T23:55:20.164Z,96736.19
2023-05-19T23:57:46.497Z,96720.34
